Philippe A — CNA5228 — position and weather

sailwx.info

Track history (hours):
 
Tides and Currents Weather Stations Pressure Air Temp Water Temp Dewpoint Dewpoint Depression Visibility Wind Speed Wind Dir Waves Ship Positions

Philippe A

Last reported at 2018-Jan-21 03:59 UTC. Time now 2018-Jan-21 20:43 UTC.
Position N 35°56' W 005°31'.

Length 133 m; draft 7.2 m.

Type: Cargo ship. MMSI: 242640300.

Date/timePositionNaut miles runAvg speedWind from/ knotsBaromVisibWave heightAir tempDewpointWater temp
2018-Jan-21 03:59N 35°56' W 005°31'3 6.9
2018-Jan-21 03:30N 35°59' W 005°28'4 7.3
2018-Jan-21 03:01N 35°60' W 005°24'4 8.5
2018-Jan-21 02:30N 35°60' W 005°19'5 8.9
2018-Jan-21 01:59N 35°60' W 005°13'5 9.5
2018-Jan-21 01:29N 35°59' W 005°07'6 0.5
2018-Jan-20 14:31N 35°57' W 005°14'014.7
2018-Jan-20 14:30N 35°57' W 005°14'714.0
2018-Jan-20 14:00N 35°58' W 005°23'510.3
2018-Jan-20 13:30N 35°59' W 005°29'5 9.1
2018-Jan-20 13:00N 36°02' W 005°25'6 0.9
2018-Jan-20 05:44N 36°08' W 005°25'1 3.0
2018-Jan-20 05:23N 36°08' W 005°24'3 7.1
2018-Jan-20 04:59N 36°05' W 005°24'1 1.9
2018-Jan-20 04:30N 36°04' W 005°23'3 5.8
2018-Jan-20 04:00N 36°03' W 005°19'4 8.0
2018-Jan-20 03:30N 36°05' W 005°15'611.0
2018-Jan-20 03:00N 36°08' W 005°09'811.6
2018-Jan-20 02:19N 36°11' W 004°60'310.3
2018-Jan-20 02:00N 36°12' W 004°56'5 9.8
2018-Jan-20 01:30N 36°14' W 004°50'510.3
2018-Jan-20 01:00N 36°15' W 004°44'5 9.4
2018-Jan-20 00:30N 36°16' W 004°38'1 2.1
2018-Jan-20 00:00N 36°16' W 004°40'1 2.2
2018-Jan-19 23:30N 36°15' W 004°41'1 2.3
2018-Jan-19 23:00N 36°15' W 004°42'1 2.3
2018-Jan-19 22:30N 36°14' W 004°44'1 2.4
2018-Jan-19 21:58N 36°14' W 004°45'1 2.4
2018-Jan-19 21:30N 36°13' W 004°46'2 2.4
2018-Jan-19 20:51N 36°12' W 004°48'1 2.4
2018-Jan-19 20:26N 36°12' W 004°49'2 2.6
2018-Jan-19 19:51N 36°12' W 004°51'1 2.7
2018-Jan-19 19:26N 36°11' W 004°52'1 2.7
2018-Jan-19 19:00N 36°10' W 004°53'2 2.7
2018-Jan-19 18:25N 36°10' W 004°55'1 2.0
2018-Jan-19 18:00N 36°10' W 004°55'4 8.7
2018-Jan-19 17:30N 36°14' W 004°51'2 4.4
2018-Jan-19 17:00N 36°15' W 004°49'1 2.7
2018-Jan-19 16:28N 36°14' W 004°50'1 2.5
2018-Jan-19 15:59N 36°13' W 004°51'1 2.5
2018-Jan-19 15:30N 36°12' W 004°52'1 2.5
2018-Jan-19 15:00N 36°11' W 004°53'1 2.2
2018-Jan-19 14:28N 36°11' W 004°54'1 1.9
2018-Jan-19 14:00N 36°10' W 004°55'1 1.8
2018-Jan-19 13:30N 36°09' W 004°55'1 1.7
2018-Jan-19 13:00N 36°08' W 004°56'2 4.9
2018-Jan-19 12:30N 36°07' W 004°59'611.3
2018-Jan-19 12:00N 36°05' W 005°05'611.9
2018-Jan-19 11:30N 36°04' W 005°12'612.0
2018-Jan-19 11:00N 36°01' W 005°19'713.8
2018-Jan-19 10:30N 35°58' W 005°26'815.1
2018-Jan-19 10:00N 35°55' W 005°35'714.8
2018-Jan-19 09:30N 35°54' W 005°44'  
2018-Jan-12 14:41N 35°32' W 006°20'914.2
2018-Jan-12 14:04N 35°26' W 006°27'  
Track history (hours):
 
Tides and Currents Weather Stations Pressure Air Temp Water Temp Dewpoint Dewpoint Depression Visibility Wind Speed Wind Dir Waves Ship Positions

Philippe A

Last reported at 2018-Jan-21 03:59 UTC. Time now 2018-Jan-21 20:43 UTC.
Position N 35°56' W 005°31'.

Length 133 m; draft 7.2 m.

Type: Cargo ship. MMSI: 242640300.

Date/timePositionNaut miles runAvg speedWind from/ knotsBaromVisibWave heightAir tempDewpointWater temp
2018-Jan-21 03:59N 35°56' W 005°31'3 6.9
2018-Jan-21 03:30N 35°59' W 005°28'4 7.3
2018-Jan-21 03:01N 35°60' W 005°24'4 8.5
2018-Jan-21 02:30N 35°60' W 005°19'5 8.9
2018-Jan-21 01:59N 35°60' W 005°13'5 9.5
2018-Jan-21 01:29N 35°59' W 005°07'6 0.5
2018-Jan-20 14:31N 35°57' W 005°14'014.7
2018-Jan-20 14:30N 35°57' W 005°14'714.0
2018-Jan-20 14:00N 35°58' W 005°23'510.3
2018-Jan-20 13:30N 35°59' W 005°29'5 9.1
2018-Jan-20 13:00N 36°02' W 005°25'6 0.9
2018-Jan-20 05:44N 36°08' W 005°25'1 3.0
2018-Jan-20 05:23N 36°08' W 005°24'3 7.1
2018-Jan-20 04:59N 36°05' W 005°24'1 1.9
2018-Jan-20 04:30N 36°04' W 005°23'3 5.8
2018-Jan-20 04:00N 36°03' W 005°19'4 8.0
2018-Jan-20 03:30N 36°05' W 005°15'611.0
2018-Jan-20 03:00N 36°08' W 005°09'811.6
2018-Jan-20 02:19N 36°11' W 004°60'310.3
2018-Jan-20 02:00N 36°12' W 004°56'5 9.8
2018-Jan-20 01:30N 36°14' W 004°50'510.3
2018-Jan-20 01:00N 36°15' W 004°44'5 9.4
2018-Jan-20 00:30N 36°16' W 004°38'1 2.1
2018-Jan-20 00:00N 36°16' W 004°40'1 2.2
2018-Jan-19 23:30N 36°15' W 004°41'1 2.3
2018-Jan-19 23:00N 36°15' W 004°42'1 2.3
2018-Jan-19 22:30N 36°14' W 004°44'1 2.4
2018-Jan-19 21:58N 36°14' W 004°45'1 2.4
2018-Jan-19 21:30N 36°13' W 004°46'2 2.4
2018-Jan-19 20:51N 36°12' W 004°48'1 2.4
2018-Jan-19 20:26N 36°12' W 004°49'2 2.6
2018-Jan-19 19:51N 36°12' W 004°51'1 2.7
2018-Jan-19 19:26N 36°11' W 004°52'1 2.7
2018-Jan-19 19:00N 36°10' W 004°53'2 2.7
2018-Jan-19 18:25N 36°10' W 004°55'1 2.0
2018-Jan-19 18:00N 36°10' W 004°55'4 8.7
2018-Jan-19 17:30N 36°14' W 004°51'2 4.4
2018-Jan-19 17:00N 36°15' W 004°49'1 2.7
2018-Jan-19 16:28N 36°14' W 004°50'1 2.5
2018-Jan-19 15:59N 36°13' W 004°51'1 2.5
2018-Jan-19 15:30N 36°12' W 004°52'1 2.5
2018-Jan-19 15:00N 36°11' W 004°53'1 2.2
2018-Jan-19 14:28N 36°11' W 004°54'1 1.9
2018-Jan-19 14:00N 36°10' W 004°55'1 1.8
2018-Jan-19 13:30N 36°09' W 004°55'1 1.7
2018-Jan-19 13:00N 36°08' W 004°56'2 4.9
2018-Jan-19 12:30N 36°07' W 004°59'611.3
2018-Jan-19 12:00N 36°05' W 005°05'611.9
2018-Jan-19 11:30N 36°04' W 005°12'612.0
2018-Jan-19 11:00N 36°01' W 005°19'713.8
2018-Jan-19 10:30N 35°58' W 005°26'815.1
2018-Jan-19 10:00N 35°55' W 005°35'714.8
2018-Jan-19 09:30N 35°54' W 005°44'  
2018-Jan-12 14:41N 35°32' W 006°20'914.2
2018-Jan-12 14:04N 35°26' W 006°27'  

Dump ship's entire track history